»·PEaware :: JBU102 KSNA-KLAS

JBU102 :: KSNA-KLAS

FLIGHT INFORMATION

Flight Status: Arrived
Operator:
JetBlue Airways
More flights by this operator :: More flights under this callsign
Pilot: Rohan O. (9904)
Aircraft: BOEING 737-300
(B733)
More flights by this aircraft type
Origin: KSNA John Wayne-Orange Co
United States
Destination: KLAS McCarran Intl
United States
More flights between these airports :: More routes between these airports
Route: FINZZ2 MISEN KEPEC6
File this flight plan on PilotEdge
Remarks: PBN / A1B3B4B5D3D4 DOF / 180414 REG / N155AW OPR / JBU PER / C RMK / TCAS SIMBRIEF
Altitude:
(Current/Filed)
27,000ft
Speed:
(Current/Filed)
438kts
Departed: 14-Apr-18 08:49 AM
Arrived: 14-Apr-18 09:39 AM
Distance/Time
Traveled:
197nm/0:50
Distance/Time
To Go:
Arrived

Flight Plot

Page will automatically refresh every two minutes.

Flight plan parsing failed; only flown route is shown


Map Options




Map Legend


Flown Route
Filed Route
Departure Airport
Arrival Airport
Navaid (VOR, NDB)
Fix

Horizontal Profiles

Position Reports

Time Latitude Longitude Heading Altitude Ground
Speed
14-Apr-18 07:55 33.680733 -117.861473 0 63ft 0kts
14-Apr-18 07:56 33.680733 -117.861473 138 63ft 0kts
14-Apr-18 07:57 33.680733 -117.861473 138 63ft 0kts
14-Apr-18 07:58 33.680733 -117.861473 138 63ft 0kts
14-Apr-18 07:59 33.680733 -117.861473 138 63ft 0kts
14-Apr-18 08:00 33.680733 -117.861473 138 63ft 0kts
14-Apr-18 08:01 33.680733 -117.861473 138 63ft 0kts
14-Apr-18 08:02 33.680733 -117.861473 138 63ft 0kts
14-Apr-18 08:03 33.680733 -117.861473 138 63ft 0kts
14-Apr-18 08:04 33.680733 -117.861473 138 63ft 0kts
14-Apr-18 08:05 33.680733 -117.861473 138 63ft 0kts
14-Apr-18 08:06 33.680733 -117.861473 138 63ft 0kts
14-Apr-18 08:07 33.680733 -117.861474 138 63ft 0kts
14-Apr-18 08:08 33.680733 -117.861474 138 63ft 0kts
14-Apr-18 08:09 33.680733 -117.861474 138 63ft 0kts
14-Apr-18 08:10 33.680733 -117.861474 138 63ft 0kts
14-Apr-18 08:11 33.680733 -117.861474 138 63ft 0kts
14-Apr-18 08:12 33.680733 -117.861474 138 63ft 0kts
14-Apr-18 08:13 33.680733 -117.861474 138 63ft 0kts
14-Apr-18 08:14 33.680733 -117.861474 138 63ft 0kts
14-Apr-18 08:15 33.680733 -117.861474 138 63ft 0kts
14-Apr-18 08:16 33.680733 -117.861474 138 63ft 0kts
14-Apr-18 08:17 33.680733 -117.861474 138 63ft 0kts
14-Apr-18 08:18 33.680733 -117.861474 138 63ft 0kts
14-Apr-18 08:19 33.680733 -117.861474 138 63ft 0kts
14-Apr-18 08:20 33.680733 -117.861474 138 63ft 0kts
14-Apr-18 08:21 33.680733 -117.861474 138 63ft 0kts
14-Apr-18 08:22 33.680733 -117.861474 138 63ft 0kts
14-Apr-18 08:23 33.680733 -117.861474 138 63ft 0kts
14-Apr-18 08:24 33.680733 -117.861474 138 63ft 0kts
14-Apr-18 08:25 33.680733 -117.861474 138 63ft 0kts
14-Apr-18 08:26 33.680733 -117.861474 138 63ft 0kts
14-Apr-18 08:27 33.680733 -117.861474 138 63ft 0kts
14-Apr-18 08:28 33.680733 -117.861474 138 63ft 0kts
14-Apr-18 08:29 33.680733 -117.861474 138 63ft 0kts
14-Apr-18 08:30 33.680733 -117.861474 138 63ft 0kts
14-Apr-18 08:31 33.680733 -117.861474 138 63ft 0kts
14-Apr-18 08:32 33.680733 -117.861474 138 63ft 0kts
14-Apr-18 08:33 33.680733 -117.861474 138 63ft 0kts
14-Apr-18 08:34 33.680733 -117.861474 138 63ft 0kts
14-Apr-18 08:35 33.680733 -117.861474 138 63ft 0kts
14-Apr-18 08:36 33.680733 -117.861474 138 63ft 0kts
14-Apr-18 08:37 33.680733 -117.861474 138 63ft 0kts
14-Apr-18 08:38 33.680864 -117.861614 138 63ft 0kts
14-Apr-18 08:39 33.681309 -117.862110 137 63ft 0kts
14-Apr-18 08:40 33.681311 -117.862112 137 63ft 0kts
14-Apr-18 08:41 33.681311 -117.862112 137 63ft 0kts
14-Apr-18 08:42 33.681311 -117.862112 137 63ft 0kts
14-Apr-18 08:43 33.681311 -117.862112 137 63ft 0kts
14-Apr-18 08:44 33.681311 -117.862112 137 63ft 0kts
14-Apr-18 08:45 33.680922 -117.862194 219 63ft 4kts
14-Apr-18 08:46 33.680714 -117.863194 296 63ft 8kts
14-Apr-18 08:47 33.681473 -117.865238 227 63ft 9kts
14-Apr-18 08:48 33.669515 -117.872849 208 66ft 149kts
14-Apr-18 08:49 33.622646 -117.891694 185 1689ft 206kts
14-Apr-18 08:50 33.563500 -117.902154 207 3812ft 242kts
14-Apr-18 08:51 33.515602 -117.959424 228 6272ft 264kts
14-Apr-18 08:52 33.498562 -118.041059 302 8413ft 276kts
14-Apr-18 08:53 33.554202 -118.097296 316 11215ft 264kts
14-Apr-18 08:54 33.623630 -118.110941 24 12173ft 322kts
14-Apr-18 08:55 33.699447 -118.065707 24 14342ft 332kts
14-Apr-18 08:56 33.777225 -118.020244 22 16226ft 345kts
14-Apr-18 08:57 33.859963 -117.971915 22 18048ft 356kts
14-Apr-18 08:58 33.941140 -117.913375 33 19429ft 379kts
14-Apr-18 08:59 34.020795 -117.840105 33 20986ft 390kts
14-Apr-18 09:00 34.100091 -117.762512 45 22453ft 405kts
14-Apr-18 09:01 34.167319 -117.662262 46 23836ft 416kts
14-Apr-18 09:02 34.236200 -117.559911 45 25057ft 425kts
14-Apr-18 09:03 34.306973 -117.454438 45 26249ft 432kts
14-Apr-18 09:04 34.379708 -117.345794 46 27282ft 439kts
14-Apr-18 09:05 34.453435 -117.234897 46 27290ft 438kts
14-Apr-18 09:06 34.528380 -117.122072 46 27292ft 438kts
14-Apr-18 09:07 34.603926 -117.011188 44 27310ft 431kts
14-Apr-18 09:08 34.677645 -116.903738 44 27304ft 424kts
14-Apr-18 09:09 34.750933 -116.796603 44 27299ft 422kts
14-Apr-18 09:10 34.823095 -116.690614 44 27303ft 422kts
14-Apr-18 09:11 34.904308 -116.595571 31 27303ft 413kts
14-Apr-18 09:12 34.993652 -116.509652 31 27034ft 416kts
14-Apr-18 09:13 35.082644 -116.423183 31 26306ft 424kts
14-Apr-18 09:14 35.156404 -116.336731 40 24097ft 418kts
14-Apr-18 09:15 35.234384 -116.238627 40 22560ft 405kts
14-Apr-18 09:16 35.310553 -116.142938 40 21088ft 395kts
14-Apr-18 09:17 35.385113 -116.049018 41 19425ft 385kts
14-Apr-18 09:18 35.456547 -115.958792 41 17777ft 376kts
14-Apr-18 09:19 35.527148 -115.869374 42 16109ft 367kts
14-Apr-18 09:20 35.595835 -115.782149 42 14444ft 358kts
14-Apr-18 09:21 35.661378 -115.698681 43 13058ft 337kts
14-Apr-18 09:22 35.734163 -115.656864 15 13014ft 289kts
14-Apr-18 09:23 35.809501 -115.627344 15 12935ft 291kts
14-Apr-18 09:24 35.880976 -115.599239 15 12678ft 289kts
14-Apr-18 09:25 35.954959 -115.569571 22 12957ft 292kts
14-Apr-18 09:26 35.995016 -115.489149 65 12506ft 281kts
14-Apr-18 09:27 36.021332 -115.405993 65 11533ft 275kts
14-Apr-18 09:28 36.027874 -115.330670 93 10578ft 265kts
14-Apr-18 09:29 36.022385 -115.256537 93 9623ft 247kts
14-Apr-18 09:30 36.016907 -115.178459 91 8358ft 239kts
14-Apr-18 09:31 36.013873 -115.101131 90 7028ft 232kts
14-Apr-18 09:32 36.010984 -115.027037 90 5707ft 227kts
14-Apr-18 09:33 36.030627 -114.967252 12 4406ft 202kts
14-Apr-18 09:34 36.074628 -114.990181 316 3807ft 184kts
14-Apr-18 09:35 36.078197 -115.042986 244 2998ft 178kts
14-Apr-18 09:36 36.072967 -115.086171 275 2626ft 140kts
14-Apr-18 09:37 36.073688 -115.127043 271 2168ft 138kts
14-Apr-18 09:38 36.074134 -115.149183 292 2148ft 10kts
14-Apr-18 09:39 36.075919 -115.151680 337 2148ft 12kts
14-Apr-18 09:40 36.077454 -115.152588 334 2148ft 3kts
14-Apr-18 09:41 36.078769 -115.151220 86 2148ft 10kts
14-Apr-18 09:42 36.079443 -115.148350 336 2148ft 10kts
14-Apr-18 09:43 36.081230 -115.148218 64 2148ft 9kts
14-Apr-18 09:44 36.081384 -115.147823 65 2148ft 0kts
14-Apr-18 09:45 36.081384 -115.147823 65 2148ft 0kts
14-Apr-18 09:46 36.081384 -115.147823 65 2148ft 0kts
14-Apr-18 09:47 36.081384 -115.147823 65 2148ft 0kts
14-Apr-18 09:48 36.081384 -115.147823 65 2148ft 0kts

Navigation Log

Ident Type
Flight plan parsing failed, navigation log unavailable